Time;durP1;ratioP1;P1;durP2;ratioP2;P2;SDS_P1;SDS_P2;PMS_P1;PMS_P2;Temp;Humidity;BMP_temperature;BMP_pressure;BME280_temperature;BME280_humidity;BME280_pressure;Samples;Min_cycle;Max_cycle;Signal;HPM_P1;HPM_P2
2022/11/08 00:03:43;;;;;;;3.83;1.83;;;11.20;99.90;;;;;;5113281;28;20433;-75
2022/11/08 00:14:21;;;;;;;3.60;1.63;;;11.90;99.90;;;;;;5113849;28;20443;-76
2022/11/08 00:16:46;;;;;;;2.90;1.50;;;12.00;99.90;;;;;;5113878;28;20450;-75
2022/11/08 00:19:12;;;;;;;3.50;1.33;;;12.20;99.90;;;;;;5113638;28;20528;-75
2022/11/08 00:21:37;;;;;;;5.43;2.70;;;12.30;99.90;;;;;;5113860;28;20184;-76
2022/11/08 00:24:03;;;;;;;2.60;1.87;;;12.50;99.90;;;;;;5113867;28;20208;-76
2022/11/08 00:26:28;;;;;;;2.20;1.43;;;12.50;99.90;;;;;;5113981;28;20168;-75
2022/11/08 00:28:54;;;;;;;5.53;1.97;;;12.60;99.90;;;;;;5114693;28;20192;-77
2022/11/08 00:31:19;;;;;;;4.07;1.87;;;12.60;99.90;;;;;;5114139;28;20608;-77
2022/11/08 00:33:45;;;;;;;4.83;1.43;;;12.60;99.90;;;;;;5112868;28;20600;-77
2022/11/08 00:36:10;;;;;;;5.63;1.47;;;12.70;99.90;;;;;;5111657;28;20215;-77
2022/11/08 00:38:40;;;;;;;3.67;1.57;;;12.70;99.90;;;;;;5113975;28;20531;-77
2022/11/08 00:41:06;;;;;;;14.60;2.17;;;12.70;99.90;;;;;;5113640;28;20189;-77
2022/11/08 00:43:31;;;;;;;5.10;1.67;;;12.70;99.90;;;;;;5113645;28;20438;-77
2022/11/08 00:45:57;;;;;;;3.37;1.27;;;12.70;99.90;;;;;;5113238;28;20550;-77
2022/11/08 00:48:22;;;;;;;2.97;1.90;;;12.80;99.90;;;;;;5113563;28;20169;-76
2022/11/08 00:50:48;;;;;;;4.40;1.97;;;12.80;99.90;;;;;;5113499;28;20200;-76
2022/11/08 00:53:13;;;;;;;2.37;1.60;;;12.80;99.90;;;;;;5112341;28;20654;-76
2022/11/08 00:55:39;;;;;;;4.53;1.80;;;12.90;99.90;;;;;;5112929;28;20192;-76
2022/11/08 00:58:04;;;;;;;2.90;1.83;;;12.90;99.90;;;;;;5113555;28;20218;-77
2022/11/08 01:00:30;;;;;;;3.63;1.33;;;12.90;99.90;;;;;;5118091;27;20191;-76
2022/11/08 01:05:39;;;;;;;3.50;2.00;;;12.90;99.90;;;;;;5111204;28;20199;-76
2022/11/08 01:08:05;;;;;;;1.67;1.30;;;13.00;99.90;;;;;;5112736;28;20930;-76
2022/11/08 01:10:30;;;;;;;4.60;1.67;;;13.00;99.90;;;;;;5112957;28;20665;-75
2022/11/08 01:12:57;;;;;;;3.27;1.80;;;13.00;99.90;;;;;;5112321;28;20691;-75
2022/11/08 01:15:22;;;;;;;4.10;1.57;;;13.00;99.90;;;;;;5112782;28;20165;-75
2022/11/08 01:17:48;;;;;;;4.03;2.00;;;13.00;99.90;;;;;;5112698;28;20417;-75
2022/11/08 01:20:14;;;;;;;2.80;1.30;;;13.00;99.90;;;;;;5111544;28;20187;-76
2022/11/08 01:22:39;;;;;;;3.80;1.70;;;12.90;99.90;;;;;;5112356;28;20187;-75
2022/11/08 01:25:05;;;;;;;2.23;1.50;;;12.90;99.90;;;;;;5112002;28;20169;-76
2022/11/08 01:27:30;;;;;;;7.73;1.60;;;12.80;99.90;;;;;;5112569;28;20222;-76
2022/11/08 01:29:56;;;;;;;3.60;1.90;;;12.80;99.90;;;;;;5110575;28;20276;-75
2022/11/08 01:32:21;;;;;;;4.97;1.53;;;12.80;99.90;;;;;;5112358;28;20203;-76
2022/11/08 01:34:47;;;;;;;6.90;1.90;;;12.90;99.90;;;;;;5111873;28;20176;-76
2022/11/08 01:37:12;;;;;;;1.67;1.37;;;12.90;99.90;;;;;;5112767;28;20213;-76
2022/11/08 01:39:38;;;;;;;2.80;1.40;;;12.90;99.90;;;;;;5112692;28;20169;-76
2022/11/08 01:42:03;;;;;;;4.00;1.23;;;12.90;99.90;;;;;;5112701;28;20532;-75
2022/11/08 01:44:29;;;;;;;4.20;2.23;;;12.90;99.90;;;;;;5112476;28;20161;-75
2022/11/08 01:46:54;;;;;;;5.40;1.70;;;12.90;99.90;;;;;;5112399;28;20165;-75
2022/11/08 01:49:44;;;;;;;8.63;1.87;;;12.90;99.90;;;;;;5112700;28;20173;-76
2022/11/08 01:52:18;;;;;;;2.40;1.80;;;12.80;99.90;;;;;;5100777;28;20243;-75
2022/11/08 01:54:50;;;;;;;3.83;1.60;;;12.80;99.90;;;;;;5112343;28;20413;-75
2022/11/08 01:57:22;;;;;;;3.10;1.43;;;12.70;99.90;;;;;;5112206;28;20438;-76
2022/11/08 01:59:51;;;;;;;4.20;1.57;;;12.70;99.90;;;;;;5112553;28;20418;-76
2022/11/08 02:02:17;;;;;;;5.23;2.00;;;12.70;99.90;;;;;;5112563;28;20535;-77
2022/11/08 02:04:43;;;;;;;12.43;2.70;;;12.60;99.90;;;;;;5112089;28;20414;-76
2022/11/08 02:07:11;;;;;;;3.47;2.73;;;12.60;99.90;;;;;;5112022;28;20403;-76
2022/11/08 02:09:38;;;;;;;3.00;1.40;;;12.50;99.90;;;;;;5112312;28;20681;-75
2022/11/08 02:12:06;;;;;;;6.07;1.80;;;12.40;99.90;;;;;;5112420;28;20474;-75
2022/11/08 02:14:32;;;;;;;1.47;1.20;;;12.30;99.90;;;;;;5112131;28;20967;-75
2022/11/08 02:16:57;;;;;;;4.87;1.70;;;12.30;99.90;;;;;;5111990;28;20437;-75
2022/11/08 02:19:38;;;;;;;3.13;1.63;;;12.20;99.90;;;;;;5110689;28;20172;-75
2022/11/08 02:22:09;;;;;;;4.93;1.70;;;12.10;99.90;;;;;;5110821;28;20161;-77
2022/11/08 02:24:35;;;;;;;3.80;1.70;;;12.10;99.90;;;;;;5113458;28;20431;-77
2022/11/08 02:27:01;;;;;;;4.60;1.63;;;12.10;99.90;;;;;;5116452;28;20434;-77
2022/11/08 02:29:30;;;;;;;3.03;1.83;;;12.00;99.90;;;;;;5116478;28;20397;-76
2022/11/08 02:31:56;;;;;;;4.07;1.80;;;11.90;99.90;;;;;;5116452;28;20399;-77
2022/11/08 02:34:27;;;;;;;7.67;2.27;;;11.90;99.90;;;;;;5114537;28;20422;-77
2022/11/08 02:36:52;;;;;;;7.70;2.63;;;11.80;99.90;;;;;;5116231;28;20487;-77
2022/11/08 02:39:18;;;;;;;4.10;2.20;;;11.80;99.90;;;;;;5116195;28;20407;-77
2022/11/08 02:41:43;;;;;;;3.53;2.07;;;11.80;99.90;;;;;;5116113;28;20662;-76
2022/11/08 02:44:09;;;;;;;3.53;1.83;;;11.80;99.90;;;;;;5115809;28;20169;-76
2022/11/08 02:46:34;;;;;;;3.27;2.33;;;11.80;99.90;;;;;;5115848;28;20173;-76
2022/11/08 02:49:00;;;;;;;8.33;2.03;;;11.70;99.90;;;;;;5116084;28;20584;-76
2022/11/08 02:51:25;;;;;;;3.83;1.60;;;11.70;99.90;;;;;;5115861;28;20279;-76
2022/11/08 02:53:51;;;;;;;10.10;2.30;;;11.60;99.90;;;;;;5115775;28;20180;-77
2022/11/08 02:56:16;;;;;;;1.90;1.70;;;11.60;99.90;;;;;;5115292;28;20188;-76
2022/11/08 02:58:42;;;;;;;2.00;1.60;;;11.50;99.90;;;;;;5115901;28;20173;-75
2022/11/08 03:01:07;;;;;;;3.27;2.13;;;11.40;99.90;;;;;;5115512;28;20231;-75
2022/11/08 03:03:33;;;;;;;5.40;3.20;;;11.40;99.90;;;;;;5115352;28;20217;-75
2022/11/08 03:05:58;;;;;;;3.50;1.60;;;11.30;99.90;;;;;;5095179;28;20193;-75
2022/11/08 03:08:24;;;;;;;4.83;2.07;;;11.20;99.90;;;;;;5095137;28;20590;-75
2022/11/08 03:10:49;;;;;;;5.70;1.90;;;11.20;99.90;;;;;;5112926;28;20718;-75
2022/11/08 03:13:15;;;;;;;7.00;3.20;;;11.10;99.90;;;;;;5115395;28;20211;-75
2022/11/08 03:15:40;;;;;;;2.20;1.80;;;11.10;99.90;;;;;;5113822;28;20196;-76
2022/11/08 03:18:06;;;;;;;2.80;1.70;;;11.10;99.90;;;;;;5115229;27;20351;-76
2022/11/08 03:20:31;;;;;;;2.10;1.90;;;11.00;99.90;;;;;;5126642;27;20582;-75
2022/11/08 03:22:59;;;;;;;8.73;1.80;;;11.00;99.90;;;;;;5113335;28;20287;-75
2022/11/08 03:25:25;;;;;;;1.60;1.50;;;11.00;99.90;;;;;;5115000;28;20172;-75
2022/11/08 03:27:50;;;;;;;3.53;1.87;;;10.90;99.90;;;;;;5115315;28;20440;-76
2022/11/08 03:30:16;;;;;;;3.50;1.60;;;10.90;99.90;;;;;;5115257;28;20793;-77
2022/11/08 03:32:45;;;;;;;4.33;3.30;;;10.80;99.90;;;;;;5115299;28;20783;-75
2022/11/08 03:35:12;;;;;;;2.40;1.80;;;10.80;99.90;;;;;;5114267;28;20630;-76
2022/11/08 03:37:38;;;;;;;7.30;2.90;;;10.70;99.90;;;;;;5115074;27;20446;-75
2022/11/08 03:40:04;;;;;;;4.03;2.57;;;10.70;99.90;;;;;;5114634;28;20442;-75
2022/11/08 03:42:29;;;;;;;3.97;1.90;;;10.70;99.90;;;;;;5115023;28;20165;-76
2022/11/08 03:44:54;;;;;;;3.90;2.07;;;10.80;99.90;;;;;;5114430;28;20411;-76
2022/11/08 03:47:20;;;;;;;4.30;3.40;;;10.80;99.90;;;;;;5115029;28;20642;-77
2022/11/08 03:49:45;;;;;;;4.60;1.90;;;10.80;99.90;;;;;;5114848;28;20187;-77
2022/11/08 03:52:11;;;;;;;2.77;1.60;;;10.90;99.90;;;;;;5113522;28;20169;-75
2022/11/08 03:54:37;;;;;;;2.90;1.20;;;10.90;99.90;;;;;;5114175;28;20198;-75
2022/11/08 03:57:02;;;;;;;2.23;1.97;;;11.00;99.90;;;;;;5114515;28;20199;-75
2022/11/08 03:59:28;;;;;;;4.67;1.40;;;11.00;99.90;;;;;;5114584;28;20240;-76
2022/11/08 04:01:54;;;;;;;5.63;2.00;;;11.00;99.90;;;;;;5113312;28;20165;-76
2022/11/08 04:04:19;;;;;;;2.10;1.70;;;11.00;99.90;;;;;;5114316;28;20230;-76
2022/11/08 04:06:45;;;;;;;4.13;2.00;;;11.00;99.90;;;;;;5114332;28;20169;-77
2022/11/08 04:09:11;;;;;;;3.37;2.43;;;10.90;99.90;;;;;;5114570;28;20169;-76
2022/11/08 04:17:04;;;;;;;1.93;1.63;;;10.80;99.90;;;;;;5114246;28;20473;-75
2022/11/08 04:22:14;;;;;;;2.13;1.50;;;10.70;99.90;;;;;;5114076;28;20222;-77
2022/11/08 04:24:40;;;;;;;2.93;1.83;;;10.70;99.90;;;;;;5112532;28;20419;-77
2022/11/08 04:27:05;;;;;;;1.80;1.40;;;10.70;99.90;;;;;;5114395;28;20244;-77
2022/11/08 04:29:31;;;;;;;2.70;2.50;;;10.70;99.90;;;;;;5114581;27;20172;-77
2022/11/08 04:31:56;;;;;;;5.53;3.10;;;10.70;99.90;;;;;;5126363;27;20176;-77
2022/11/08 04:34:22;;;;;;;3.43;1.87;;;10.70;99.90;;;;;;5113521;28;20656;-75
2022/11/08 04:36:47;;;;;;;2.83;1.80;;;10.70;99.90;;;;;;5113800;28;20220;-75
2022/11/08 04:39:13;;;;;;;3.00;2.20;;;10.70;99.90;;;;;;5113764;28;20685;-75
2022/11/08 04:41:38;;;;;;;4.23;2.10;;;10.70;99.90;;;;;;5113777;28;20286;-76
2022/11/08 04:44:04;;;;;;;3.50;2.17;;;10.60;99.90;;;;;;5113618;28;20251;-77
2022/11/08 04:46:29;;;;;;;4.30;1.80;;;10.60;99.90;;;;;;5112826;28;20244;-77
2022/11/08 04:48:57;;;;;;;3.93;2.33;;;10.60;99.90;;;;;;5113781;28;20582;-77
2022/11/08 04:51:32;;;;;;;4.23;2.03;;;10.50;99.90;;;;;;5113820;28;20185;-77
2022/11/08 04:54:00;;;;;;;2.53;1.90;;;10.50;99.90;;;;;;5113754;28;20425;-76
2022/11/08 04:56:27;;;;;;;4.60;3.03;;;10.40;99.90;;;;;;5113443;28;20450;-74
2022/11/08 04:58:55;;;;;;;7.60;2.73;;;10.40;99.90;;;;;;5113632;28;20793;-75
2022/11/08 05:01:24;;;;;;;4.33;3.03;;;10.40;99.90;;;;;;5113495;28;20418;-74
2022/11/08 05:03:50;;;;;;;6.07;3.60;;;10.40;99.90;;;;;;5113206;28;20415;-74
2022/11/08 05:06:19;;;;;;;6.10;3.20;;;10.50;99.90;;;;;;5113169;27;20744;-76
2022/11/08 05:08:45;;;;;;;7.30;3.50;;;10.50;99.90;;;;;;5112133;28;20407;-74
2022/11/08 05:11:14;;;;;;;3.40;3.07;;;10.50;99.90;;;;;;5113189;28;20449;-74
2022/11/08 05:13:40;;;;;;;6.33;3.57;;;10.50;99.90;;;;;;5111743;28;20414;-75
2022/11/08 05:16:10;;;;;;;5.47;3.20;;;10.50;99.90;;;;;;5111645;28;20442;-75
2022/11/08 05:18:35;;;;;;;4.33;3.30;;;10.60;99.90;;;;;;5113223;27;20410;-76
2022/11/08 05:23:47;;;;;;;4.77;4.00;;;10.50;99.90;;;;;;5113052;28;20556;-74
2022/11/08 05:26:13;;;;;;;7.10;4.67;;;10.50;99.90;;;;;;5112809;28;20450;-74
2022/11/08 05:28:39;;;;;;;6.40;4.10;;;10.50;99.90;;;;;;5111697;28;20501;-74
2022/11/08 05:31:05;;;;;;;5.47;3.83;;;10.40;99.90;;;;;;5112806;28;20582;-74
2022/11/08 05:33:31;;;;;;;5.23;4.50;;;10.40;99.90;;;;;;5112764;28;20583;-75
2022/11/08 05:36:03;;;;;;;8.00;5.23;;;10.40;99.90;;;;;;5116926;27;20438;-75
2022/11/08 05:38:30;;;;;;;7.80;4.07;;;10.30;99.90;;;;;;5117893;27;20633;-75
2022/11/08 05:41:06;;;;;;;12.30;4.57;;;10.40;99.90;;;;;;5112784;28;20414;-75
2022/11/08 05:43:32;;;;;;;6.40;3.53;;;10.40;99.90;;;;;;5112577;28;20414;-75
2022/11/08 05:45:57;;;;;;;8.17;3.83;;;10.30;99.90;;;;;;5112479;28;20398;-75
2022/11/08 05:48:23;;;;;;;7.50;4.03;;;10.30;99.90;;;;;;5111535;28;20182;-75
2022/11/08 05:50:49;;;;;;;5.73;4.20;;;10.40;99.90;;;;;;5112697;28;20241;-75
2022/11/08 05:53:15;;;;;;;10.03;3.97;;;10.30;99.90;;;;;;5112471;28;20192;-75
2022/11/08 05:55:40;;;;;;;6.40;3.73;;;10.30;99.90;;;;;;5111181;28;20189;-75
2022/11/08 05:58:06;;;;;;;9.77;5.43;;;10.30;99.90;;;;;;5111083;28;20959;-75
2022/11/08 06:00:31;;;;;;;12.70;5.50;;;10.20;99.90;;;;;;5110856;28;20724;-75
2022/11/08 06:02:57;;;;;;;6.17;4.63;;;10.20;99.90;;;;;;5112184;28;20545;-75
2022/11/08 06:05:22;;;;;;;5.13;3.87;;;10.20;99.90;;;;;;5112274;28;20164;-73
2022/11/08 06:07:48;;;;;;;8.10;4.77;;;10.20;99.90;;;;;;5112219;28;20634;-73
2022/11/08 06:10:13;;;;;;;5.73;3.40;;;10.20;99.90;;;;;;5112060;28;20216;-74
2022/11/08 06:12:39;;;;;;;4.40;3.10;;;10.20;99.90;;;;;;5111980;28;20184;-75
2022/11/08 06:15:06;;;;;;;5.37;3.70;;;10.20;99.90;;;;;;5112273;28;20186;-75
2022/11/08 06:17:32;;;;;;;12.90;4.70;;;10.20;99.90;;;;;;5112258;28;20677;-75
2022/11/08 06:19:57;;;;;;;5.53;3.70;;;10.30;99.90;;;;;;5112076;28;20438;-75
2022/11/08 06:22:23;;;;;;;8.03;3.97;;;10.30;99.90;;;;;;5112112;28;20165;-76
2022/11/08 06:24:49;;;;;;;5.80;3.70;;;10.30;99.90;;;;;;5112053;28;20161;-76
2022/11/08 06:27:15;;;;;;;9.07;3.70;;;10.40;99.90;;;;;;5110792;28;20245;-75
2022/11/08 06:29:41;;;;;;;6.77;3.10;;;10.40;99.90;;;;;;5111020;28;20161;-75
2022/11/08 06:32:10;;;;;;;6.70;3.20;;;10.40;99.90;;;;;;5112276;28;20415;-75
2022/11/08 06:34:36;;;;;;;7.00;2.93;;;10.40;99.90;;;;;;5111915;28;20402;-75
2022/11/08 06:37:03;;;;;;;5.47;3.30;;;10.40;99.90;;;;;;5112108;28;20549;-75
2022/11/08 06:39:29;;;;;;;4.50;3.43;;;10.40;99.90;;;;;;5111523;28;20244;-75
2022/11/08 06:41:55;;;;;;;3.37;3.07;;;10.40;99.90;;;;;;5110721;28;20476;-76
2022/11/08 06:44:20;;;;;;;4.23;3.07;;;10.50;99.90;;;;;;5111826;28;20606;-75
2022/11/08 06:46:46;;;;;;;3.80;2.80;;;10.50;99.90;;;;;;5113252;28;20179;-75
2022/11/08 06:49:11;;;;;;;2.57;2.37;;;10.50;99.90;;;;;;5115747;28;20201;-76
2022/11/08 06:51:37;;;;;;;3.93;1.80;;;10.50;99.90;;;;;;5112030;28;20189;-76
2022/11/08 06:54:05;;;;;;;6.33;2.63;;;10.60;99.90;;;;;;5112135;28;20187;-75
2022/11/08 06:56:31;;;;;;;2.77;2.30;;;10.60;99.90;;;;;;5111583;28;20193;-76
2022/11/08 06:58:57;;;;;;;5.87;3.00;;;10.60;99.90;;;;;;5111847;28;20456;-75
2022/11/08 07:01:22;;;;;;;2.30;1.53;;;10.70;99.90;;;;;;5111263;28;20192;-75
2022/11/08 07:03:48;;;;;;;6.50;2.47;;;10.70;99.90;;;;;;5111904;28;20172;-75
2022/11/08 07:06:13;;;;;;;2.67;1.80;;;10.80;99.90;;;;;;5110459;28;20623;-75
2022/11/08 07:08:39;;;;;;;2.40;1.77;;;10.80;99.90;;;;;;5111573;28;20202;-76
2022/11/08 07:11:05;;;;;;;6.20;2.20;;;10.80;99.90;;;;;;5114632;28;20224;-76
2022/11/08 07:13:30;;;;;;;2.90;2.30;;;10.90;99.90;;;;;;5115466;28;20259;-75
2022/11/08 07:15:57;;;;;;;8.73;2.20;;;10.90;99.90;;;;;;5115036;28;21042;-75
2022/11/08 07:18:23;;;;;;;3.10;2.37;;;10.90;99.90;;;;;;5115139;28;20161;-77
2022/11/08 07:20:49;;;;;;;5.00;1.80;;;10.90;99.90;;;;;;5115274;28;20443;-75
2022/11/08 07:23:15;;;;;;;2.53;1.60;;;10.90;99.90;;;;;;5114020;28;20183;-75
2022/11/08 07:25:41;;;;;;;5.73;2.40;;;10.90;99.90;;;;;;5115088;28;20244;-76
2022/11/08 07:28:11;;;;;;;4.30;2.30;;;11.00;99.90;;;;;;5115205;28;20173;-76
2022/11/08 07:30:37;;;;;;;5.23;1.43;;;11.00;99.90;;;;;;5115153;28;20441;-76
2022/11/08 07:33:03;;;;;;;1.97;1.57;;;11.00;99.90;;;;;;5115291;28;20403;-76
2022/11/08 07:35:28;;;;;;;3.43;1.70;;;11.00;99.90;;;;;;5114784;28;20630;-76
2022/11/08 07:37:55;;;;;;;4.30;1.90;;;11.10;99.90;;;;;;5114866;28;20156;-75
2022/11/08 07:40:20;;;;;;;3.90;1.80;;;11.10;99.90;;;;;;5114703;28;20195;-76
2022/11/08 07:42:46;;;;;;;2.87;1.90;;;11.20;99.90;;;;;;5114747;28;20410;-76
2022/11/08 07:45:11;;;;;;;1.70;1.57;;;11.30;99.90;;;;;;5114237;28;20161;-76
2022/11/08 07:47:37;;;;;;;3.40;2.27;;;11.50;99.90;;;;;;5114699;28;20177;-74
2022/11/08 07:50:03;;;;;;;1.90;1.50;;;11.90;99.90;;;;;;5114184;28;20188;-75
2022/11/08 07:52:29;;;;;;;3.60;1.80;;;12.10;99.90;;;;;;5114787;28;20168;-74
2022/11/08 07:54:54;;;;;;;1.67;1.53;;;12.30;99.90;;;;;;5114541;28;20407;-74
2022/11/08 07:57:20;;;;;;;3.03;1.83;;;12.40;99.90;;;;;;5112278;27;20224;-74
2022/11/08 07:59:45;;;;;;;3.00;1.53;;;12.50;99.90;;;;;;5118574;27;20567;-74
2022/11/08 08:02:12;;;;;;;3.50;1.70;;;12.40;99.90;;;;;;5115766;27;20176;-74
2022/11/08 08:04:37;;;;;;;2.23;1.60;;;12.70;99.90;;;;;;5113108;28;20168;-75
2022/11/08 08:07:03;;;;;;;1.70;1.43;;;12.90;99.90;;;;;;5114561;28;20779;-75
2022/11/08 08:09:29;;;;;;;5.90;2.20;;;13.20;99.90;;;;;;5114207;28;20422;-75
2022/11/08 08:11:54;;;;;;;3.50;1.80;;;13.40;99.90;;;;;;5114529;28;20177;-74
2022/11/08 08:14:20;;;;;;;2.10;1.73;;;13.10;99.90;;;;;;5114109;28;20168;-74
2022/11/08 08:16:46;;;;;;;2.40;1.10;;;13.00;99.90;;;;;;5114304;28;20212;-74
2022/11/08 08:19:12;;;;;;;2.33;1.60;;;12.80;99.90;;;;;;5114184;28;20417;-74
2022/11/08 08:21:37;;;;;;;3.77;1.93;;;12.80;99.90;;;;;;5111643;28;20193;-74
2022/11/08 08:24:04;;;;;;;3.10;1.57;;;12.60;99.90;;;;;;5112752;28;20653;-74
2022/11/08 08:26:29;;;;;;;4.10;1.87;;;12.70;99.90;;;;;;5114026;28;20176;-75
2022/11/08 08:28:55;;;;;;;4.43;1.80;;;12.80;99.90;;;;;;5113919;28;20789;-75
2022/11/08 08:31:20;;;;;;;7.30;1.80;;;12.80;99.90;;;;;;5112398;28;20200;-75
2022/11/08 08:33:46;;;;;;;6.43;2.50;;;13.00;99.90;;;;;;5113748;28;20177;-75
2022/11/08 08:36:11;;;;;;;2.90;1.43;;;13.10;99.90;;;;;;5113503;28;20554;-75
2022/11/08 08:38:37;;;;;;;7.57;1.67;;;13.00;99.90;;;;;;5113413;28;20177;-74
2022/11/08 08:41:02;;;;;;;2.07;1.47;;;13.10;99.90;;;;;;5113194;28;20195;-75
2022/11/08 08:43:31;;;;;;;2.20;1.30;;;13.20;99.90;;;;;;5113223;28;20169;-75
2022/11/08 08:46:01;;;;;;;4.20;1.73;;;13.40;99.90;;;;;;5112345;28;20184;-75
2022/11/08 08:48:26;;;;;;;2.03;1.30;;;13.50;99.90;;;;;;5113374;27;20502;-75
2022/11/08 08:50:52;;;;;;;2.90;1.70;;;13.50;99.90;;;;;;5113594;28;20466;-75
2022/11/08 08:53:18;;;;;;;1.87;1.33;;;13.50;99.90;;;;;;5113871;28;20606;-74
2022/11/08 08:55:43;;;;;;;3.60;1.30;;;13.50;99.90;;;;;;5113119;28;20169;-75
2022/11/08 08:58:09;;;;;;;3.60;1.97;;;13.40;99.90;;;;;;5113107;28;20173;-74
2022/11/08 09:00:35;;;;;;;2.10;1.63;;;13.30;99.90;;;;;;5113058;28;20214;-75
2022/11/08 09:03:08;;;;;;;4.53;2.07;;;13.30;99.90;;;;;;5113354;28;20399;-74
2022/11/08 09:05:34;;;;;;;2.43;1.50;;;13.30;99.90;;;;;;5112892;28;20164;-75
2022/11/08 09:08:00;;;;;;;3.67;1.87;;;13.30;99.90;;;;;;5121767;27;20405;-75
2022/11/08 09:10:27;;;;;;;2.80;1.77;;;13.30;99.90;;;;;;5115959;27;20606;-75
2022/11/08 09:12:52;;;;;;;6.90;1.53;;;13.50;99.90;;;;;;5113233;28;20164;-76
2022/11/08 09:15:18;;;;;;;2.50;1.37;;;13.50;99.90;;;;;;5112527;28;21022;-76
2022/11/08 09:17:44;;;;;;;2.53;1.30;;;13.60;99.90;;;;;;5111913;28;20341;-78
2022/11/08 09:20:10;;;;;;;10.80;1.70;;;13.60;99.90;;;;;;5112900;28;20423;-76
2022/11/08 09:22:37;;;;;;;4.20;1.70;;;13.60;99.90;;;;;;5112511;28;20245;-76
2022/11/08 09:25:03;;;;;;;3.37;2.27;;;13.60;99.90;;;;;;5112638;28;20411;-76
2022/11/08 09:27:30;;;;;;;3.80;1.57;;;13.60;99.90;;;;;;5112487;28;20794;-76
2022/11/08 09:29:57;;;;;;;5.10;1.63;;;13.50;99.90;;;;;;5111126;28;20461;-76
2022/11/08 09:32:24;;;;;;;1.70;1.50;;;13.40;99.90;;;;;;5110982;28;20415;-76
2022/11/08 09:34:50;;;;;;;5.53;1.60;;;13.30;99.90;;;;;;5112324;28;20399;-76
2022/11/08 09:37:16;;;;;;;6.63;2.70;;;13.20;99.90;;;;;;5112364;28;20496;-76
2022/11/08 09:39:42;;;;;;;2.17;1.37;;;13.20;99.90;;;;;;5112500;28;20448;-76
2022/11/08 09:42:29;;;;;;;2.00;1.30;;;13.10;99.90;;;;;;5111848;28;20418;-76
2022/11/08 09:44:57;;;;;;;3.90;1.70;;;13.20;99.90;;;;;;5112083;28;20233;-75
2022/11/08 09:47:27;;;;;;;1.60;1.33;;;13.20;99.90;;;;;;5112668;28;20453;-75
2022/11/08 09:50:16;;;;;;;1.83;1.30;;;13.20;99.90;;;;;;5110930;28;20434;-75
2022/11/08 09:52:50;;;;;;;4.20;1.80;;;13.30;99.90;;;;;;5112390;28;20410;-75
2022/11/08 09:55:15;;;;;;;2.60;1.10;;;13.40;99.90;;;;;;5111715;28;20411;-75
2022/11/08 09:58:02;;;;;;;2.50;1.33;;;13.40;99.90;;;;;;5111838;28;20445;-75
2022/11/08 10:00:28;;;;;;;4.80;1.47;;;13.60;99.90;;;;;;5112456;28;20180;-75
2022/11/08 10:02:54;;;;;;;3.17;1.30;;;13.70;99.90;;;;;;5112227;28;20452;-75
2022/11/08 10:05:20;;;;;;;2.03;1.40;;;13.70;99.90;;;;;;5091951;28;20580;-75
2022/11/08 10:08:00;;;;;;;4.47;2.33;;;13.80;99.90;;;;;;5092015;28;20435;-76
2022/11/08 10:10:54;;;;;;;2.57;1.53;;;13.90;99.90;;;;;;5092026;28;20185;-76
2022/11/08 10:13:44;;;;;;;1.50;1.30;;;13.90;99.90;;;;;;5094265;28;20410;-76
2022/11/08 10:16:14;;;;;;;5.03;2.37;;;13.90;99.90;;;;;;5111956;28;20802;-76
2022/11/08 10:19:10;;;;;;;2.10;1.30;;;13.90;99.90;;;;;;5117264;28;20474;-77
2022/11/08 10:21:58;;;;;;;1.93;1.70;;;14.00;99.90;;;;;;5115006;27;20426;-76
2022/11/08 10:24:38;;;;;;;4.60;1.50;;;14.00;99.90;;;;;;5111756;28;20823;-75
2022/11/08 10:27:13;;;;;;;3.30;1.87;;;14.00;99.90;;;;;;5112295;28;20394;-75
2022/11/08 10:29:45;;;;;;;4.03;1.90;;;14.00;99.90;;;;;;5112182;28;20910;-75
2022/11/08 10:32:21;;;;;;;2.40;1.40;;;14.20;99.90;;;;;;5111982;28;20406;-75
2022/11/08 10:35:10;;;;;;;3.07;1.70;;;14.20;99.90;;;;;;5111396;28;20407;-76
2022/11/08 10:37:36;;;;;;;9.40;1.77;;;14.20;99.90;;;;;;5062135;28;20974;-76
2022/11/08 10:40:16;;;;;;;5.37;1.90;;;14.40;99.90;;;;;;5112008;28;20776;-76
2022/11/08 10:43:10;;;;;;;3.33;1.40;;;14.50;99.90;;;;;;5112180;28;20436;-76
2022/11/08 10:45:35;;;;;;;3.67;1.57;;;14.50;99.90;;;;;;5091243;28;20423;-76
2022/11/08 10:48:02;;;;;;;4.47;2.13;;;14.70;99.90;;;;;;5095695;28;20400;-76
2022/11/08 10:50:48;;;;;;;5.80;2.20;;;14.90;99.90;;;;;;5095542;28;20217;-76
2022/11/08 10:53:26;;;;;;;2.60;1.60;;;15.00;99.90;;;;;;5097171;28;20438;-75
2022/11/08 10:56:01;;;;;;;2.07;1.37;;;15.10;99.90;;;;;;5115308;28;20507;-76
2022/11/08 10:58:34;;;;;;;3.70;1.73;;;15.20;99.90;;;;;;5116036;28;20485;-76
2022/11/08 11:01:12;;;;;;;2.20;1.50;;;15.10;99.90;;;;;;5115996;28;20422;-76
2022/11/08 11:03:37;;;;;;;2.70;1.80;;;15.60;99.90;;;;;;5115919;28;20786;-76
2022/11/08 11:06:05;;;;;;;9.33;1.97;;;15.90;99.90;;;;;;5096969;28;20410;-77
2022/11/08 11:08:32;;;;;;;2.80;1.60;;;16.30;99.90;;;;;;5115701;28;20165;-76
2022/11/08 11:11:31;;;;;;;2.97;1.70;;;16.80;99.90;;;;;;5097338;28;20607;-76
2022/11/08 11:14:15;;;;;;;2.97;1.77;;;17.30;99.90;;;;;;5115355;28;20406;-76
2022/11/08 11:16:53;;;;;;;7.73;2.07;;;17.70;99.90;;;;;;5115432;28;20446;-76
2022/11/08 11:19:19;;;;;;;1.83;1.30;;;17.80;99.90;;;;;;5097208;28;20406;-76
2022/11/08 11:21:52;;;;;;;1.60;1.40;;;17.70;99.90;;;;;;5115382;28;20927;-76
2022/11/08 11:24:19;;;;;;;5.77;2.67;;;18.20;99.90;;;;;;5115182;28;20469;-77
2022/11/08 11:27:09;;;;;;;1.80;1.70;;;18.70;99.90;;;;;;5116956;27;20419;-77
2022/11/08 11:29:36;;;;;;;2.17;1.97;;;19.00;99.90;;;;;;5122011;27;20462;-77
2022/11/08 11:32:32;;;;;;;2.10;1.90;;;19.10;99.90;;;;;;5124236;27;20986;-77
2022/11/08 11:35:04;;;;;;;3.20;1.83;;;19.00;99.90;;;;;;5114044;28;20423;-77
2022/11/08 11:37:43;;;;;;;2.20;1.90;;;18.90;99.90;;;;;;5116592;28;20450;-77
2022/11/08 11:40:14;;;;;;;2.80;1.73;;;18.30;99.90;;;;;;5116820;28;20422;-78
2022/11/08 11:42:40;;;;;;;2.20;2.00;;;18.20;99.90;;;;;;5116586;28;20442;-77
2022/11/08 11:45:11;;;;;;;3.83;2.20;;;18.20;99.90;;;;;;5116596;28;20451;-77
2022/11/08 11:48:17;;;;;;;3.50;1.83;;;18.10;99.90;;;;;;5114804;28;20179;-76
2022/11/08 11:50:48;;;;;;;1.97;1.77;;;17.80;99.90;;;;;;5032747;28;20434;-76
2022/11/08 11:53:29;;;;;;;2.97;2.10;;;17.30;99.90;;;;;;5013126;28;20545;-77
2022/11/08 11:56:00;;;;;;;3.23;1.30;;;16.90;99.90;;;;;;5062622;28;20443;-75
2022/11/08 11:59:01;;;;;;;1.53;1.33;;;16.80;99.90;;;;;;5093155;28;20439;-75
2022/11/08 12:01:54;;;;;;;1.87;1.60;;;16.60;99.90;;;;;;5085784;28;20588;-74
2022/11/08 12:04:44;;;;;;;1.80;1.47;;;16.60;99.90;;;;;;5114454;28;20395;-76
2022/11/08 12:07:29;;;;;;;4.30;2.10;;;16.60;99.90;;;;;;5113398;28;20410;-76
2022/11/08 12:10:09;;;;;;;2.30;1.60;;;16.60;99.90;;;;;;5114622;28;20499;-76
2022/11/08 12:12:47;;;;;;;4.07;1.77;;;16.50;99.90;;;;;;5114394;28;20417;-75
2022/11/08 12:15:20;;;;;;;3.57;1.40;;;16.60;99.90;;;;;;5113928;28;20415;-75
2022/11/08 12:18:06;;;;;;;2.33;1.67;;;16.50;99.90;;;;;;5114431;28;20446;-75
2022/11/08 12:20:50;;;;;;;2.27;1.23;;;16.40;99.90;;;;;;5114373;28;20415;-75
2022/11/08 12:23:34;;;;;;;3.87;1.60;;;16.50;99.90;;;;;;5112907;28;20436;-75
2022/11/08 12:26:13;;;;;;;6.47;1.63;;;16.50;99.90;;;;;;5113913;28;20440;-76
2022/11/08 12:29:18;;;;;;;6.00;1.80;;;16.70;99.90;;;;;;5114372;28;20386;-76
2022/11/08 12:32:01;;;;;;;3.00;1.90;;;16.90;99.90;;;;;;5034359;28;20519;-77
2022/11/08 12:34:57;;;;;;;4.70;2.07;;;17.00;99.90;;;;;;5034511;28;20914;-76
2022/11/08 12:37:48;;;;;;;2.00;1.70;;;17.20;99.90;;;;;;5100853;28;20461;-76
2022/11/08 12:40:28;;;;;;;1.97;1.23;;;17.30;99.90;;;;;;5114012;28;20488;-75
2022/11/08 12:42:59;;;;;;;2.20;1.50;;;17.50;99.90;;;;;;5113874;28;20415;-74
2022/11/08 12:45:43;;;;;;;2.27;1.63;;;17.60;99.90;;;;;;5113497;28;20417;-76
2022/11/08 12:48:21;;;;;;;3.30;2.37;;;17.60;99.90;;;;;;5112518;28;20411;-75
2022/11/08 12:50:59;;;;;;;2.17;1.50;;;17.60;99.90;;;;;;5113799;28;20422;-76
2022/11/08 12:53:57;;;;;;;3.90;1.93;;;17.60;99.90;;;;;;5113913;28;20748;-76
2022/11/08 12:56:38;;;;;;;3.73;1.60;;;17.50;99.90;;;;;;5111900;28;20454;-75
2022/11/08 12:59:15;;;;;;;2.60;1.40;;;17.40;99.90;;;;;;5113554;28;20441;-76
2022/11/08 13:01:41;;;;;;;1.23;1.07;;;17.40;99.90;;;;;;5111840;28;20422;-76
2022/11/08 13:04:31;;;;;;;1.83;1.40;;;17.40;99.90;;;;;;5112248;28;20962;-76
2022/11/08 13:07:10;;;;;;;1.97;1.10;;;17.40;99.90;;;;;;5111223;28;20446;-76
2022/11/08 13:09:46;;;;;;;3.83;1.53;;;17.40;99.90;;;;;;5113364;28;20395;-76
2022/11/08 13:12:24;;;;;;;2.30;1.53;;;17.50;99.90;;;;;;5112128;28;20410;-76
2022/11/08 13:14:50;;;;;;;1.70;1.33;;;17.50;99.90;;;;;;5112935;28;20413;-77
2022/11/08 13:17:25;;;;;;;3.40;1.50;;;17.50;99.90;;;;;;5113018;28;20844;-76
2022/11/08 13:19:50;;;;;;;1.90;1.40;;;17.60;99.90;;;;;;5112763;28;20475;-76
2022/11/08 13:22:28;;;;;;;3.10;1.20;;;17.60;99.90;;;;;;5113117;28;20399;-76